Time;durP1;ratioP1;P1;durP2;ratioP2;P2;SDS_P1;SDS_P2;PMS_P1;PMS_P2;Temp;Humidity;BMP_temperature;BMP_pressure;BME280_temperature;BME280_humidity;BME280_pressure;Samples;Min_cycle;Max_cycle;Signal;HPM_P1;HPM_P2
2021/11/26 00:01:00;;;;;;;1.33;0.93;;;11.10;79.70;;;;;;5152824;27;20450;-62
2021/11/26 00:03:25;;;;;;;2.47;0.82;;;11.00;79.60;;;;;;5155053;27;20042;-59
2021/11/26 00:05:51;;;;;;;1.67;0.80;;;11.10;79.70;;;;;;5155237;27;20035;-61
2021/11/26 00:08:17;;;;;;;1.23;0.93;;;11.20;79.80;;;;;;5155043;27;20484;-62
2021/11/26 00:10:43;;;;;;;0.70;0.70;;;11.10;79.70;;;;;;5155464;27;20031;-61
2021/11/26 00:13:10;;;;;;;2.08;0.82;;;11.10;79.70;;;;;;5154207;27;20110;-60
2021/11/26 00:15:38;;;;;;;1.10;0.90;;;11.10;79.70;;;;;;5154266;27;20038;-61
2021/11/26 00:18:11;;;;;;;1.48;0.90;;;11.10;79.70;;;;;;5155312;27;20479;-61
2021/11/26 00:20:38;;;;;;;1.50;0.70;;;11.10;79.70;;;;;;5155024;27;20072;-61
2021/11/26 00:23:05;;;;;;;1.15;0.90;;;11.10;79.70;;;;;;5155237;27;20057;-61
2021/11/26 00:25:31;;;;;;;1.35;0.88;;;11.20;79.80;;;;;;5134179;27;20150;-60
2021/11/26 00:27:57;;;;;;;1.20;0.80;;;11.10;79.70;;;;;;5155235;27;20103;-61
2021/11/26 00:30:22;;;;;;;1.42;1.08;;;11.20;79.70;;;;;;5155338;27;20126;-61
2021/11/26 00:32:48;;;;;;;1.80;0.95;;;11.10;80.40;;;;;;5155121;27;20046;-62
2021/11/26 00:35:14;;;;;;;1.25;0.93;;;11.20;79.70;;;;;;5154686;27;20088;-61
2021/11/26 00:37:40;;;;;;;1.40;0.90;;;11.10;79.70;;;;;;5153558;27;20045;-61
2021/11/26 00:40:08;;;;;;;2.53;1.20;;;11.10;79.70;;;;;;5154439;27;20039;-62
2021/11/26 00:42:34;;;;;;;1.98;0.70;;;11.10;79.70;;;;;;5154953;27;20095;-62
2021/11/26 00:45:00;;;;;;;1.27;0.80;;;11.10;79.70;;;;;;5152320;27;20031;-62
2021/11/26 00:47:26;;;;;;;1.02;0.80;;;11.10;79.80;;;;;;5134738;27;20406;-62
2021/11/26 00:49:52;;;;;;;0.88;0.75;;;11.10;79.70;;;;;;5154494;27;20035;-60
2021/11/26 00:52:19;;;;;;;1.05;0.73;;;11.10;79.70;;;;;;5155310;27;20034;-62
2021/11/26 00:54:45;;;;;;;2.08;0.98;;;11.10;79.80;;;;;;5155243;27;20031;-61
2021/11/26 00:57:11;;;;;;;1.05;0.70;;;11.10;79.70;;;;;;5152729;27;20031;-60
2021/11/26 00:59:38;;;;;;;1.52;0.85;;;11.10;79.70;;;;;;5154612;27;20038;-61
2021/11/26 01:02:05;;;;;;;1.40;0.85;;;11.20;79.80;;;;;;5154606;27;20042;-60
2021/11/26 01:04:31;;;;;;;0.75;0.70;;;11.10;79.70;;;;;;5135775;27;20053;-61
2021/11/26 01:06:57;;;;;;;1.63;0.80;;;11.10;79.70;;;;;;5154225;27;20140;-60
2021/11/26 01:09:23;;;;;;;1.73;0.70;;;11.10;79.80;;;;;;5134237;27;20040;-61
2021/11/26 01:11:49;;;;;;;1.60;0.70;;;11.10;79.80;;;;;;5154330;27;20035;-61
2021/11/26 01:14:15;;;;;;;1.42;0.85;;;11.10;79.70;;;;;;5154299;27;20046;-60
2021/11/26 01:16:41;;;;;;;1.40;1.02;;;11.10;79.70;;;;;;5154501;27;20458;-61
2021/11/26 01:19:07;;;;;;;0.93;0.60;;;11.00;79.70;;;;;;5152320;27;20039;-61
2021/11/26 01:21:32;;;;;;;1.70;0.82;;;11.10;79.70;;;;;;5154017;27;20118;-61
2021/11/26 01:23:58;;;;;;;1.65;0.90;;;11.10;79.70;;;;;;5153637;27;20061;-59
2021/11/26 01:26:25;;;;;;;1.38;0.70;;;11.10;79.70;;;;;;5153848;27;20039;-60
2021/11/26 01:28:51;;;;;;;0.80;0.70;;;11.10;79.70;;;;;;5152920;27;20078;-60
2021/11/26 01:31:18;;;;;;;1.75;1.05;;;11.10;79.80;;;;;;5135378;27;20073;-61
2021/11/26 01:33:45;;;;;;;1.05;0.85;;;11.10;79.70;;;;;;5154082;27;20039;-61
2021/11/26 01:36:11;;;;;;;1.80;1.00;;;11.10;79.70;;;;;;5153829;27;20490;-60
2021/11/26 01:38:37;;;;;;;0.65;0.60;;;11.10;79.70;;;;;;5154006;27;20063;-60
2021/11/26 01:41:08;;;;;;;0.90;0.80;;;11.10;79.80;;;;;;5153163;27;20489;-59
2021/11/26 01:43:34;;;;;;;1.00;0.90;;;11.10;79.80;;;;;;5153631;27;20043;-60
2021/11/26 01:46:08;;;;;;;1.63;0.73;;;11.10;79.80;;;;;;5150624;27;20039;-62
2021/11/26 01:48:39;;;;;;;0.95;0.65;;;11.10;79.80;;;;;;5153930;27;20462;-59
2021/11/26 01:51:05;;;;;;;1.92;0.85;;;11.10;79.80;;;;;;5132787;27;20042;-60
2021/11/26 01:53:32;;;;;;;2.13;0.93;;;11.10;79.80;;;;;;5153641;27;20517;-61
2021/11/26 01:55:59;;;;;;;1.98;1.00;;;11.10;79.80;;;;;;5153841;27;20042;-60
2021/11/26 01:58:25;;;;;;;1.30;0.90;;;11.10;79.80;;;;;;5153938;27;20037;-60
2021/11/26 02:00:52;;;;;;;1.77;0.80;;;11.10;79.80;;;;;;5152138;27;20470;-61
2021/11/26 02:03:17;;;;;;;1.27;0.93;;;11.10;79.80;;;;;;5152803;27;20113;-60
2021/11/26 02:05:44;;;;;;;0.98;0.63;;;11.10;79.80;;;;;;5153540;27;20125;-61
2021/11/26 02:08:10;;;;;;;1.73;0.75;;;11.10;79.80;;;;;;5153352;27;20542;-61
2021/11/26 02:10:37;;;;;;;0.70;0.68;;;11.10;79.80;;;;;;5153978;27;20109;-61
2021/11/26 02:13:04;;;;;;;0.90;0.75;;;11.10;79.80;;;;;;5152949;27;20035;-59
2021/11/26 02:15:31;;;;;;;1.00;0.60;;;11.10;79.80;;;;;;5134846;27;20382;-60
2021/11/26 02:17:59;;;;;;;0.73;0.57;;;11.10;79.80;;;;;;5152627;27;20035;-62
2021/11/26 02:20:27;;;;;;;1.02;0.60;;;11.10;80.40;;;;;;5153545;27;20445;-62
2021/11/26 02:22:55;;;;;;;1.83;1.02;;;11.10;79.80;;;;;;5152434;27;20474;-62
2021/11/26 02:25:23;;;;;;;0.82;0.60;;;11.10;79.80;;;;;;5150262;27;20035;-61
2021/11/26 02:27:53;;;;;;;1.25;0.93;;;11.10;79.80;;;;;;5153195;27;20502;-63
2021/11/26 02:30:19;;;;;;;0.75;0.63;;;11.10;79.80;;;;;;5153468;27;20030;-61
2021/11/26 02:32:50;;;;;;;1.02;0.73;;;11.10;79.80;;;;;;5151969;27;20121;-61
2021/11/26 02:35:16;;;;;;;1.25;0.90;;;11.10;79.80;;;;;;5151741;27;20497;-62
2021/11/26 02:37:42;;;;;;;0.77;0.60;;;11.10;79.80;;;;;;5157309;27;20038;-61
2021/11/26 02:40:10;;;;;;;0.70;0.70;;;11.10;79.80;;;;;;5157347;27;20038;-62
2021/11/26 02:42:38;;;;;;;0.80;0.70;;;11.10;79.80;;;;;;5157328;27;20053;-62
2021/11/26 02:45:07;;;;;;;0.85;0.45;;;11.10;79.80;;;;;;5156426;27;20034;-61
2021/11/26 02:47:34;;;;;;;1.05;0.57;;;11.10;79.80;;;;;;5155986;27;20105;-62
2021/11/26 02:50:03;;;;;;;1.38;0.50;;;11.10;79.80;;;;;;5156977;27;20602;-59
2021/11/26 02:52:29;;;;;;;0.70;0.60;;;11.10;79.80;;;;;;5157081;27;20490;-62
2021/11/26 02:54:55;;;;;;;0.60;0.60;;;11.10;79.80;;;;;;5156839;27;20043;-61
2021/11/26 02:57:21;;;;;;;1.35;0.75;;;11.10;79.80;;;;;;5138761;27;20050;-61
2021/11/26 02:59:47;;;;;;;1.20;0.70;;;10.90;79.70;;;;;;5157164;27;20042;-62
2021/11/26 03:02:13;;;;;;;0.68;0.63;;;11.10;79.80;;;;;;5157022;27;20035;-61
2021/11/26 03:04:39;;;;;;;0.57;0.50;;;11.10;79.80;;;;;;5155920;27;20027;-60
2021/11/26 03:07:07;;;;;;;1.73;0.50;;;11.10;79.80;;;;;;5156617;27;20478;-60
2021/11/26 03:09:33;;;;;;;0.95;0.50;;;11.10;79.80;;;;;;5156860;27;20087;-62
2021/11/26 03:11:59;;;;;;;0.60;0.60;;;11.10;79.80;;;;;;5156785;27;20047;-62
2021/11/26 03:14:25;;;;;;;1.38;0.63;;;11.10;79.80;;;;;;5156858;27;20030;-59
2021/11/26 03:16:51;;;;;;;0.75;0.40;;;11.10;79.80;;;;;;5156167;27;20038;-62
2021/11/26 03:19:18;;;;;;;1.02;0.93;;;11.10;79.80;;;;;;5156372;27;20368;-61
2021/11/26 03:21:44;;;;;;;0.60;0.45;;;11.10;79.90;;;;;;5156204;27;20455;-61
2021/11/26 03:24:09;;;;;;;1.02;0.60;;;11.10;79.90;;;;;;5156570;27;20039;-61
2021/11/26 03:26:35;;;;;;;1.27;0.70;;;11.00;79.70;;;;;;5154985;27;20107;-60
2021/11/26 03:29:01;;;;;;;0.90;0.57;;;11.10;79.90;;;;;;5156543;27;20035;-61
2021/11/26 03:31:27;;;;;;;0.60;0.50;;;11.10;79.80;;;;;;5156429;27;20035;-61
2021/11/26 03:33:53;;;;;;;0.88;0.70;;;11.10;79.80;;;;;;5156586;27;20027;-61
2021/11/26 03:36:18;;;;;;;1.65;0.57;;;11.10;79.80;;;;;;5155828;27;20113;-61
2021/11/26 03:38:44;;;;;;;0.50;0.43;;;11.00;79.80;;;;;;5154957;27;20481;-62
2021/11/26 03:41:11;;;;;;;1.02;0.50;;;11.00;79.80;;;;;;5156281;27;20070;-61
2021/11/26 03:43:37;;;;;;;0.95;0.65;;;11.10;79.80;;;;;;5156324;27;20038;-61
2021/11/26 03:46:03;;;;;;;0.65;0.55;;;11.10;79.90;;;;;;5156259;27;20031;-60
2021/11/26 03:48:29;;;;;;;1.10;0.70;;;11.10;79.90;;;;;;5154679;27;20039;-60
2021/11/26 03:50:55;;;;;;;1.00;0.60;;;11.00;79.80;;;;;;5155498;27;20053;-61
2021/11/26 03:53:21;;;;;;;2.00;0.60;;;11.10;79.80;;;;;;5152831;27;20045;-61
2021/11/26 03:55:47;;;;;;;0.90;0.60;;;11.10;79.80;;;;;;5156254;27;20038;-61
2021/11/26 03:58:13;;;;;;;0.88;0.60;;;11.00;79.80;;;;;;5154535;27;20088;-61
2021/11/26 04:00:39;;;;;;;0.75;0.55;;;11.10;79.80;;;;;;5155889;27;20039;-61
2021/11/26 04:03:05;;;;;;;1.02;0.82;;;11.00;79.80;;;;;;5155714;27;20042;-60
2021/11/26 04:05:31;;;;;;;0.77;0.75;;;11.10;79.90;;;;;;5155663;27;20087;-58
2021/11/26 04:07:58;;;;;;;0.60;0.40;;;11.10;79.90;;;;;;5154765;27;20038;-60
2021/11/26 04:10:24;;;;;;;1.08;0.63;;;11.00;79.80;;;;;;5153654;27;20030;-61
2021/11/26 04:12:50;;;;;;;1.42;0.60;;;11.10;79.90;;;;;;5155765;27;20122;-61
2021/11/26 04:15:18;;;;;;;0.60;0.52;;;11.10;79.90;;;;;;5155258;27;20488;-61
2021/11/26 04:17:45;;;;;;;0.90;0.70;;;11.00;79.80;;;;;;5155469;27;20041;-57
2021/11/26 04:20:12;;;;;;;1.23;0.70;;;11.10;79.90;;;;;;5153403;27;20494;-61
2021/11/26 04:22:38;;;;;;;0.98;0.60;;;11.10;79.80;;;;;;5154919;27;20119;-61
2021/11/26 04:25:06;;;;;;;0.43;0.43;;;11.00;79.80;;;;;;5154922;27;20049;-62
2021/11/26 04:27:32;;;;;;;0.47;0.40;;;11.00;79.80;;;;;;5155300;27;20183;-60
2021/11/26 04:29:58;;;;;;;1.10;0.47;;;11.10;79.90;;;;;;5153675;27;20711;-61
2021/11/26 04:32:25;;;;;;;0.45;0.45;;;11.10;79.80;;;;;;5136299;27;20074;-61
2021/11/26 04:34:52;;;;;;;0.82;0.50;;;11.10;79.90;;;;;;5154848;27;20044;-62
2021/11/26 04:37:18;;;;;;;1.30;0.65;;;11.00;79.80;;;;;;5154949;27;20031;-62
2021/11/26 04:39:43;;;;;;;0.75;0.50;;;11.10;79.90;;;;;;5136158;27;20038;-61
2021/11/26 04:42:10;;;;;;;1.15;0.60;;;11.00;79.80;;;;;;5153515;27;20433;-58
2021/11/26 04:44:36;;;;;;;0.40;0.40;;;11.00;79.80;;;;;;5155255;27;20039;-62
2021/11/26 04:47:02;;;;;;;0.65;0.57;;;11.00;79.80;;;;;;5152265;27;20504;-61
2021/11/26 04:49:28;;;;;;;0.70;0.50;;;11.00;79.80;;;;;;5136186;27;20050;-62
2021/11/26 04:51:53;;;;;;;0.40;0.40;;;11.00;79.80;;;;;;5153616;27;20034;-62
2021/11/26 04:54:19;;;;;;;0.38;0.38;;;11.00;79.80;;;;;;5154626;27;20458;-62
2021/11/26 04:56:45;;;;;;;0.70;0.52;;;10.90;79.70;;;;;;5154232;27;20111;-63
2021/11/26 04:59:10;;;;;;;1.02;0.60;;;11.00;79.80;;;;;;5154669;27;20546;-62
2021/11/26 05:01:36;;;;;;;0.98;0.50;;;11.00;80.40;;;;;;5154542;27;20039;-60
2021/11/26 05:04:02;;;;;;;0.50;0.45;;;11.00;79.80;;;;;;5152933;27;20034;-60
2021/11/26 05:06:28;;;;;;;0.73;0.60;;;11.10;79.90;;;;;;5118178;27;20054;-61
2021/11/26 05:08:54;;;;;;;0.50;0.47;;;11.00;79.80;;;;;;5135856;27;20163;-62
2021/11/26 05:11:20;;;;;;;1.10;0.50;;;11.00;79.90;;;;;;5153939;27;20038;-61
2021/11/26 05:13:47;;;;;;;0.52;0.43;;;11.00;79.80;;;;;;5152616;27;20121;-59
2021/11/26 05:16:14;;;;;;;1.17;0.57;;;11.00;79.80;;;;;;5154480;27;20041;-59
2021/11/26 05:18:41;;;;;;;0.73;0.70;;;11.00;79.80;;;;;;5154231;27;20039;-61
2021/11/26 05:21:07;;;;;;;1.10;0.50;;;11.00;79.80;;;;;;5154492;27;20042;-61
2021/11/26 05:23:33;;;;;;;0.40;0.40;;;11.00;79.80;;;;;;5133351;27;20050;-60
2021/11/26 05:25:59;;;;;;;0.55;0.50;;;11.00;79.80;;;;;;5153853;27;20054;-61
2021/11/26 05:28:26;;;;;;;1.52;0.63;;;11.00;79.80;;;;;;5153448;27;20457;-61
2021/11/26 05:30:52;;;;;;;0.45;0.45;;;11.00;79.80;;;;;;5154085;27;20035;-60
2021/11/26 05:33:17;;;;;;;0.40;0.40;;;11.20;79.90;;;;;;5154263;27;20061;-61
2021/11/26 05:35:43;;;;;;;0.60;0.50;;;11.00;79.80;;;;;;5152411;27;20033;-61
2021/11/26 05:38:09;;;;;;;0.60;0.50;;;11.00;79.80;;;;;;5154179;27;20081;-61
2021/11/26 05:40:34;;;;;;;0.68;0.47;;;11.00;79.90;;;;;;5153900;27;20045;-59
2021/11/26 05:43:00;;;;;;;0.32;0.30;;;11.00;79.80;;;;;;5153060;27;20112;-60
2021/11/26 05:45:26;;;;;;;0.40;0.40;;;11.10;79.90;;;;;;5132998;27;20038;-62
2021/11/26 05:47:52;;;;;;;0.40;0.40;;;11.10;79.90;;;;;;5153225;27;20141;-61
2021/11/26 05:50:19;;;;;;;0.85;0.52;;;11.00;79.80;;;;;;5153914;27;20035;-59
2021/11/26 05:52:45;;;;;;;0.30;0.30;;;11.00;79.80;;;;;;5154019;27;20043;-60
2021/11/26 05:55:14;;;;;;;0.90;0.50;;;11.00;79.80;;;;;;5152674;27;20047;-58
2021/11/26 05:57:40;;;;;;;0.57;0.43;;;11.00;79.80;;;;;;5153436;27;20599;-60
2021/11/26 06:00:10;;;;;;;0.68;0.52;;;10.90;79.80;;;;;;5153148;27;20042;-61
2021/11/26 06:02:36;;;;;;;0.30;0.30;;;11.00;79.80;;;;;;5153525;27;20498;-60
2021/11/26 06:05:02;;;;;;;0.52;0.40;;;11.00;79.80;;;;;;5150738;27;20497;-60
2021/11/26 06:07:28;;;;;;;0.60;0.60;;;11.00;79.80;;;;;;5152876;27;20041;-59
2021/11/26 06:09:54;;;;;;;0.70;0.60;;;11.00;79.80;;;;;;5135088;27;20039;-59
2021/11/26 06:12:20;;;;;;;1.20;0.60;;;11.00;79.80;;;;;;5157440;27;20041;-61
2021/11/26 06:14:45;;;;;;;0.85;0.50;;;11.00;79.80;;;;;;5138598;27;20050;-57
2021/11/26 06:17:11;;;;;;;0.30;0.30;;;11.00;79.80;;;;;;5138480;27;20045;-59
2021/11/26 06:19:37;;;;;;;0.68;0.40;;;11.00;79.90;;;;;;5157973;27;20042;-61
2021/11/26 06:22:03;;;;;;;0.40;0.40;;;11.00;79.90;;;;;;5158080;27;20370;-58
2021/11/26 06:24:29;;;;;;;0.30;0.30;;;11.00;79.90;;;;;;5138976;27;20107;-61
2021/11/26 06:26:54;;;;;;;0.98;0.50;;;11.00;79.90;;;;;;5156073;27;20163;-60
2021/11/26 06:29:20;;;;;;;1.05;0.50;;;11.00;79.90;;;;;;5157433;27;20042;-61
2021/11/26 06:31:46;;;;;;;0.40;0.40;;;11.00;79.90;;;;;;5157105;27;20397;-59
2021/11/26 06:34:11;;;;;;;1.17;0.60;;;11.00;79.90;;;;;;5138829;27;20038;-59
2021/11/26 06:36:37;;;;;;;0.88;0.68;;;11.00;79.90;;;;;;5157287;27;20175;-61
2021/11/26 06:39:03;;;;;;;0.50;0.47;;;11.00;79.90;;;;;;5137856;27;20038;-60
2021/11/26 06:41:29;;;;;;;0.70;0.70;;;11.00;79.90;;;;;;5157253;27;20405;-60
2021/11/26 06:43:55;;;;;;;1.35;0.52;;;11.00;79.90;;;;;;5157608;27;20117;-58
2021/11/26 06:46:21;;;;;;;0.38;0.30;;;11.00;79.90;;;;;;5138002;27;20125;-57
2021/11/26 06:48:46;;;;;;;0.70;0.40;;;11.00;79.90;;;;;;5152606;27;20095;-55
2021/11/26 06:51:12;;;;;;;0.30;0.30;;;11.00;79.90;;;;;;5143820;27;20473;-59
2021/11/26 06:53:38;;;;;;;0.30;0.30;;;11.00;79.90;;;;;;5156474;27;20050;-62
2021/11/26 06:56:04;;;;;;;0.40;0.40;;;11.00;79.90;;;;;;5156987;27;20117;-56
2021/11/26 06:58:30;;;;;;;0.57;0.47;;;10.90;79.80;;;;;;5157498;27;20433;-61
2021/11/26 07:00:56;;;;;;;0.43;0.40;;;11.00;79.90;;;;;;5156273;27;20034;-61
2021/11/26 07:03:22;;;;;;;0.77;0.40;;;11.00;79.90;;;;;;5156473;27;20038;-60
2021/11/26 07:05:47;;;;;;;1.08;0.57;;;11.00;79.90;;;;;;5157101;27;20102;-58
2021/11/26 07:08:13;;;;;;;0.70;0.45;;;11.00;79.90;;;;;;5157005;27;20110;-60
2021/11/26 07:10:39;;;;;;;0.65;0.60;;;10.90;79.80;;;;;;5155277;27;20486;-58
2021/11/26 07:13:05;;;;;;;0.73;0.50;;;11.00;79.90;;;;;;5156467;27;20707;-62
2021/11/26 07:15:30;;;;;;;0.40;0.40;;;11.00;79.90;;;;;;5155998;27;20083;-60
2021/11/26 07:17:56;;;;;;;0.70;0.50;;;11.00;79.90;;;;;;5155533;27;20049;-60
2021/11/26 07:20:22;;;;;;;0.77;0.50;;;10.90;79.90;;;;;;5153856;27;20378;-61
2021/11/26 07:22:48;;;;;;;0.63;0.40;;;11.00;79.80;;;;;;5155469;27;20603;-61
2021/11/26 07:25:14;;;;;;;0.50;0.50;;;10.90;79.80;;;;;;5155540;27;20029;-58
2021/11/26 07:27:40;;;;;;;0.80;0.70;;;11.00;79.90;;;;;;5155343;27;20055;-61
2021/11/26 07:30:08;;;;;;;0.60;0.40;;;10.90;79.80;;;;;;5153590;27;20134;-61
2021/11/26 07:32:33;;;;;;;0.60;0.60;;;11.00;79.90;;;;;;5152960;27;20125;-60
2021/11/26 07:34:59;;;;;;;0.40;0.40;;;11.00;79.90;;;;;;5155634;27;20122;-61
2021/11/26 07:37:25;;;;;;;0.60;0.60;;;10.90;79.80;;;;;;5153196;27;20066;-58
2021/11/26 07:39:52;;;;;;;0.40;0.40;;;11.00;79.90;;;;;;5155975;27;20490;-61
2021/11/26 07:42:18;;;;;;;0.88;0.55;;;11.00;79.90;;;;;;5156433;27;20043;-60
2021/11/26 07:44:44;;;;;;;0.93;0.40;;;10.90;79.80;;;;;;5137414;27;20424;-61
2021/11/26 07:47:13;;;;;;;0.68;0.40;;;11.00;79.90;;;;;;5156183;27;20031;-59
2021/11/26 07:49:40;;;;;;;0.50;0.50;;;10.90;79.80;;;;;;5155761;27;20046;-60
2021/11/26 07:52:07;;;;;;;0.40;0.40;;;11.00;79.90;;;;;;5155078;27;20034;-56
2021/11/26 07:54:33;;;;;;;0.60;0.60;;;10.90;79.80;;;;;;5156547;27;20099;-60
2021/11/26 07:56:58;;;;;;;0.50;0.50;;;10.90;79.80;;;;;;5156527;27;20478;-58
2021/11/26 07:59:26;;;;;;;0.63;0.50;;;10.90;79.80;;;;;;5156179;27;20055;-57
2021/11/26 08:01:52;;;;;;;0.57;0.52;;;11.00;79.90;;;;;;5156402;27;20046;-59
2021/11/26 08:04:18;;;;;;;1.85;0.50;;;11.00;79.90;;;;;;5156229;27;20035;-61
2021/11/26 08:06:46;;;;;;;1.25;0.82;;;10.90;79.80;;;;;;5155332;27;20492;-61
2021/11/26 08:09:16;;;;;;;0.73;0.47;;;10.90;79.80;;;;;;5156106;27;20046;-58
2021/11/26 08:11:43;;;;;;;0.80;0.50;;;11.00;79.90;;;;;;5156039;27;20057;-61
2021/11/26 08:14:10;;;;;;;1.05;0.47;;;10.90;79.80;;;;;;5156422;27;20047;-61
2021/11/26 08:16:37;;;;;;;0.98;0.60;;;11.00;79.90;;;;;;5137046;27;20046;-61
2021/11/26 08:19:05;;;;;;;0.40;0.40;;;10.90;79.80;;;;;;5155224;27;20034;-61
2021/11/26 08:21:32;;;;;;;0.40;0.40;;;10.90;79.80;;;;;;5151485;27;20095;-61
2021/11/26 08:24:01;;;;;;;0.90;0.50;;;11.00;79.90;;;;;;5155168;27;20060;-57
2021/11/26 08:26:27;;;;;;;0.88;0.50;;;10.90;79.80;;;;;;5154999;27;20046;-60
2021/11/26 08:28:53;;;;;;;0.50;0.50;;;10.90;79.80;;;;;;5155249;27;20047;-60
2021/11/26 08:31:19;;;;;;;0.95;0.60;;;10.90;79.80;;;;;;5155602;27;20037;-58
2021/11/26 08:33:44;;;;;;;0.75;0.60;;;10.90;79.80;;;;;;5153796;27;20031;-56
2021/11/26 08:36:10;;;;;;;0.93;0.60;;;11.00;79.90;;;;;;5155126;27;20094;-57
2021/11/26 08:38:36;;;;;;;0.73;0.60;;;10.90;79.80;;;;;;5154675;27;20042;-54
2021/11/26 08:41:01;;;;;;;0.40;0.40;;;10.90;79.80;;;;;;5155011;27;20031;-54
2021/11/26 08:43:27;;;;;;;1.17;0.57;;;10.90;79.80;;;;;;5155243;27;20042;-55
2021/11/26 08:45:53;;;;;;;2.00;0.65;;;10.90;79.90;;;;;;5155214;27;20417;-58
2021/11/26 08:48:18;;;;;;;1.02;0.55;;;10.90;79.90;;;;;;5154353;27;20506;-53
2021/11/26 08:50:44;;;;;;;0.60;0.40;;;10.90;79.90;;;;;;5154264;27;20468;-53
2021/11/26 08:53:11;;;;;;;0.75;0.40;;;11.00;79.90;;;;;;5154789;27;20038;-56
2021/11/26 08:55:39;;;;;;;0.68;0.63;;;10.90;79.90;;;;;;5135197;27;20042;-52
2021/11/26 08:58:09;;;;;;;0.80;0.60;;;10.90;79.90;;;;;;5154988;27;20049;-57
2021/11/26 09:00:35;;;;;;;0.75;0.57;;;11.00;80.60;;;;;;5154765;27;20046;-55
2021/11/26 09:03:05;;;;;;;2.28;0.40;;;10.90;79.90;;;;;;5134897;27;20451;-51
2021/11/26 09:05:31;;;;;;;0.70;0.60;;;10.90;79.90;;;;;;5154235;27;20043;-51
2021/11/26 09:08:00;;;;;;;1.20;0.70;;;10.90;79.80;;;;;;5154654;27;20042;-54
2021/11/26 09:10:27;;;;;;;0.98;0.73;;;10.90;79.80;;;;;;5129365;27;20059;-53
2021/11/26 09:12:53;;;;;;;0.80;0.60;;;10.90;79.90;;;;;;5154173;27;20065;-57
2021/11/26 09:15:19;;;;;;;0.30;0.30;;;10.90;79.90;;;;;;5154332;27;20496;-57
2021/11/26 09:17:45;;;;;;;0.38;0.38;;;10.90;79.80;;;;;;5128263;27;20042;-57
2021/11/26 09:20:17;;;;;;;2.05;0.60;;;10.90;79.90;;;;;;5151567;27;20046;-58
2021/11/26 09:22:44;;;;;;;1.20;0.60;;;10.90;79.90;;;;;;5153633;27;20088;-61
2021/11/26 09:25:10;;;;;;;1.02;0.63;;;10.90;79.90;;;;;;5150006;27;20133;-58
2021/11/26 09:27:36;;;;;;;1.85;0.82;;;10.90;79.90;;;;;;5152886;27;20062;-58
2021/11/26 09:30:03;;;;;;;0.75;0.40;;;10.90;79.80;;;;;;5152645;27;20038;-60
2021/11/26 09:32:29;;;;;;;0.95;0.50;;;10.90;79.90;;;;;;5152993;27;20409;-60
2021/11/26 09:34:55;;;;;;;1.20;0.75;;;10.90;79.90;;;;;;5153964;27;20047;-59
2021/11/26 09:37:20;;;;;;;0.80;0.52;;;10.90;79.90;;;;;;5144764;27;20039;-60
2021/11/26 09:39:46;;;;;;;0.70;0.70;;;10.90;79.90;;;;;;5151728;27;20126;-59
2021/11/26 09:42:12;;;;;;;1.52;0.60;;;10.90;79.90;;;;;;5153103;27;20039;-57
2021/11/26 09:44:41;;;;;;;1.58;0.55;;;10.90;80.00;;;;;;5150319;27;20030;-53
2021/11/26 09:47:07;;;;;;;1.08;0.60;;;10.90;79.90;;;;;;5152217;27;20093;-58
2021/11/26 09:49:39;;;;;;;0.70;0.52;;;10.90;79.90;;;;;;5152786;27;20043;-57
2021/11/26 09:52:05;;;;;;;0.45;0.45;;;10.80;79.80;;;;;;5153494;27;20047;-58
2021/11/26 09:54:42;;;;;;;1.00;0.50;;;10.90;79.90;;;;;;5152730;27;20103;-55
2021/11/26 09:57:10;;;;;;;1.50;0.77;;;10.90;80.50;;;;;;5113690;27;20042;-57
2021/11/26 09:59:40;;;;;;;1.08;0.52;;;10.90;79.90;;;;;;5132515;27;20487;-55
2021/11/26 10:02:18;;;;;;;0.60;0.50;;;10.90;79.80;;;;;;5129443;27;20418;-55
2021/11/26 10:04:55;;;;;;;1.00;0.85;;;10.90;79.80;;;;;;5126123;27;20039;-54
2021/11/26 10:07:21;;;;;;;0.30;0.30;;;10.90;79.90;;;;;;5132637;28;20047;-52
2021/11/26 10:09:46;;;;;;;2.15;0.90;;;10.90;79.80;;;;;;5131798;28;20039;-55
2021/11/26 10:12:14;;;;;;;0.60;0.50;;;10.90;79.80;;;;;;5143964;27;20035;-54
2021/11/26 10:14:43;;;;;;;1.00;0.55;;;11.00;79.90;;;;;;5152762;27;20118;-54
2021/11/26 10:17:18;;;;;;;1.10;0.70;;;10.90;79.90;;;;;;5152241;27;20510;-54
2021/11/26 10:19:47;;;;;;;1.40;0.80;;;10.90;79.80;;;;;;5153286;27;20034;-53
2021/11/26 10:22:27;;;;;;;1.00;0.60;;;10.90;79.80;;;;;;5134674;27;20066;-58
2021/11/26 10:25:14;;;;;;;1.00;0.65;;;10.90;79.80;;;;;;5152340;27;20044;-56
2021/11/26 10:27:48;;;;;;;0.57;0.52;;;10.90;79.80;;;;;;5152327;27;20443;-54
2021/11/26 10:30:20;;;;;;;1.70;0.75;;;10.90;79.80;;;;;;5151946;27;20107;-55
2021/11/26 10:33:11;;;;;;;0.80;0.80;;;10.90;79.80;;;;;;5152172;27;20039;-58
2021/11/26 10:35:57;;;;;;;0.85;0.60;;;10.90;79.70;;;;;;5048836;28;20056;-56
2021/11/26 10:38:34;;;;;;;1.15;0.50;;;10.90;79.80;;;;;;5049339;28;20378;-56
2021/11/26 10:41:05;;;;;;;1.27;0.70;;;10.90;79.80;;;;;;5049370;28;20065;-56
2021/11/26 10:43:41;;;;;;;2.35;0.60;;;10.90;80.50;;;;;;5049586;28;20056;-58
2021/11/26 10:51:35;;;;;;;2.42;0.80;;;10.90;79.80;;;;;;5049055;28;20160;-57
2021/11/26 10:59:31;;;;;;;0.60;0.60;;;11.00;79.90;;;;;;5051851;28;20049;-57
2021/11/26 11:01:57;;;;;;;0.85;0.50;;;10.90;79.80;;;;;;5035688;28;20056;-57
2021/11/26 11:04:26;;;;;;;1.48;0.70;;;10.90;79.90;;;;;;5052928;28;20041;-57
2021/11/26 11:07:03;;;;;;;1.45;0.70;;;10.90;79.80;;;;;;5051818;28;20127;-56
2021/11/26 11:09:47;;;;;;;2.25;0.82;;;10.90;79.80;;;;;;5052797;28;20183;-56
2021/11/26 11:12:14;;;;;;;0.65;0.65;;;10.90;79.80;;;;;;5071603;27;20062;-55
2021/11/26 11:14:52;;;;;;;0.52;0.50;;;10.90;79.80;;;;;;5156788;27;20050;-54
2021/11/26 11:17:19;;;;;;;0.70;0.50;;;10.90;79.80;;;;;;5156794;27;20045;-54
2021/11/26 11:19:45;;;;;;;1.30;0.82;;;10.90;80.40;;;;;;5137924;27;20039;-58
2021/11/26 11:22:11;;;;;;;1.38;0.57;;;10.90;79.80;;;;;;5154804;27;20041;-54
2021/11/26 11:24:36;;;;;;;1.05;0.77;;;11.00;79.80;;;;;;5153984;27;20034;-60
2021/11/26 11:27:04;;;;;;;2.17;0.70;;;10.90;79.80;;;;;;5156268;27;20397;-57
2021/11/26 11:29:30;;;;;;;5.60;1.95;;;10.90;79.80;;;;;;5155591;27;20054;-60
2021/11/26 11:31:57;;;;;;;8.82;1.90;;;10.80;78.10;;;;;;5156226;27;20043;-62
2021/11/26 11:34:27;;;;;;;6.90;2.30;;;10.80;78.50;;;;;;5135840;27;20058;-59
2021/11/26 11:36:58;;;;;;;4.97;1.95;;;10.60;78.50;;;;;;5155971;27;20034;-60
2021/11/26 11:39:25;;;;;;;5.88;1.90;;;10.60;78.50;;;;;;5156639;27;20043;-59
2021/11/26 11:41:58;;;;;;;3.17;2.08;;;10.70;78.60;;;;;;5137306;27;20371;-59
2021/11/26 11:44:27;;;;;;;2.15;1.42;;;10.70;78.70;;;;;;5140984;27;20035;-57
2021/11/26 11:46:54;;;;;;;3.83;1.48;;;10.70;78.70;;;;;;5156346;27;20046;-59
2021/11/26 11:49:28;;;;;;;5.15;2.00;;;10.70;78.80;;;;;;5136530;27;20439;-60
2021/11/26 11:52:03;;;;;;;5.05;1.90;;;10.80;78.90;;;;;;5154579;27;20046;-62
2021/11/26 11:54:42;;;;;;;4.43;1.70;;;10.80;78.90;;;;;;5137269;27;20046;-62
2021/11/26 11:57:20;;;;;;;4.32;1.70;;;10.80;78.90;;;;;;5136729;27;20695;-60
2021/11/26 11:59:49;;;;;;;3.60;1.88;;;10.80;79.00;;;;;;5144748;27;20045;-60
2021/11/26 12:02:24;;;;;;;3.08;1.60;;;10.80;79.10;;;;;;5155705;27;20447;-59
2021/11/26 12:04:50;;;;;;;6.47;2.03;;;10.80;79.10;;;;;;5154237;27;20051;-59
2021/11/26 12:07:28;;;;;;;2.80;1.30;;;10.80;79.10;;;;;;5155761;27;20038;-61
2021/11/26 12:10:08;;;;;;;2.38;1.38;;;10.80;79.10;;;;;;5156042;27;20042;-61
2021/11/26 12:12:49;;;;;;;3.80;1.50;;;10.80;79.10;;;;;;5154939;27;20046;-59
2021/11/26 12:15:32;;;;;;;4.47;1.67;;;10.80;79.10;;;;;;5156001;27;20043;-59
2021/11/26 12:18:04;;;;;;;3.17;1.45;;;10.80;79.10;;;;;;5136381;27;20094;-60
2021/11/26 12:20:32;;;;;;;4.70;1.60;;;10.90;79.20;;;;;;5154969;27;20527;-60
2021/11/26 12:23:03;;;;;;;2.50;1.45;;;10.80;79.20;;;;;;5155925;27;20080;-62
2021/11/26 12:28:23;;;;;;;7.07;3.05;;;10.90;79.20;;;;;;5155151;27;20066;-60
2021/11/26 12:31:10;;;;;;;6.78;2.10;;;10.80;77.70;;;;;;5136660;27;20051;-59
2021/11/26 12:33:37;;;;;;;4.25;2.25;;;10.70;78.10;;;;;;5134650;27;20058;-59
2021/11/26 12:36:08;;;;;;;4.60;2.17;;;10.70;78.50;;;;;;5134218;27;20095;-59
2021/11/26 12:38:49;;;;;;;4.03;2.08;;;10.70;78.50;;;;;;5134735;27;20047;-58
2021/11/26 12:41:33;;;;;;;7.32;2.95;;;10.70;78.50;;;;;;5117965;27;20128;-58
2021/11/26 12:44:02;;;;;;;4.45;2.40;;;10.70;78.60;;;;;;5155391;27;20431;-62
2021/11/26 12:46:29;;;;;;;5.03;2.03;;;10.80;78.80;;;;;;5136774;27;20119;-61
2021/11/26 12:52:06;;;;;;;6.43;2.42;;;10.80;78.80;;;;;;5090401;28;20046;-62
2021/11/26 12:54:33;;;;;;;6.03;2.20;;;10.80;78.80;;;;;;5091260;28;20506;-61
2021/11/26 12:57:05;;;;;;;4.32;2.47;;;10.80;78.80;;;;;;5091034;28;20048;-65
2021/11/26 12:59:39;;;;;;;5.20;3.05;;;10.70;78.00;;;;;;5091064;28;20055;-67
2021/11/26 13:02:07;;;;;;;4.97;2.95;;;10.70;78.20;;;;;;5090783;28;20056;-59
2021/11/26 13:04:37;;;;;;;8.00;3.22;;;10.70;78.40;;;;;;5090531;28;20038;-60
2021/11/26 13:07:08;;;;;;;10.45;3.85;;;10.70;78.40;;;;;;5090593;28;20051;-55